sensor_id;sensor_type;location;lat;lon;timestamp;P1;durP1;ratioP1;P2;durP2;ratioP2
69892;SDS011;61212;42.688;22.176;2023-01-01T00:02:06;254.23;;;111.22;;
69892;SDS011;61212;42.688;22.176;2023-01-01T00:04:32;322.38;;;112.55;;
69892;SDS011;61212;42.688;22.176;2023-01-01T00:06:58;263.35;;;110.88;;
69892;SDS011;61212;42.688;22.176;2023-01-01T00:09:25;274.52;;;111.28;;
69892;SDS011;61212;42.688;22.176;2023-01-01T00:12:26;264.38;;;113.38;;
69892;SDS011;61212;42.688;22.176;2023-01-01T00:14:52;361.88;;;130.65;;
69892;SDS011;61212;42.688;22.176;2023-01-01T00:17:18;324.90;;;128.50;;
69892;SDS011;61212;42.688;22.176;2023-01-01T00:19:45;368.92;;;143.68;;
69892;SDS011;61212;42.688;22.176;2023-01-01T00:22:11;366.67;;;138.30;;
69892;SDS011;61212;42.688;22.176;2023-01-01T00:24:37;329.67;;;133.20;;
69892;SDS011;61212;42.688;22.176;2023-01-01T00:27:03;353.95;;;138.02;;
69892;SDS011;61212;42.688;22.176;2023-01-01T00:29:29;387.10;;;155.88;;
69892;SDS011;61212;42.688;22.176;2023-01-01T00:31:56;350.15;;;143.80;;
69892;SDS011;61212;42.688;22.176;2023-01-01T00:34:22;370.77;;;131.85;;
69892;SDS011;61212;42.688;22.176;2023-01-01T00:36:48;375.25;;;130.20;;
69892;SDS011;61212;42.688;22.176;2023-01-01T00:39:14;285.02;;;123.40;;
69892;SDS011;61212;42.688;22.176;2023-01-01T00:41:40;338.88;;;136.68;;
69892;SDS011;61212;42.688;22.176;2023-01-01T00:44:07;295.50;;;131.30;;
69892;SDS011;61212;42.688;22.176;2023-01-01T00:46:33;371.35;;;153.60;;
69892;SDS011;61212;42.688;22.176;2023-01-01T00:48:59;329.52;;;128.15;;
69892;SDS011;61212;42.688;22.176;2023-01-01T00:51:25;296.77;;;117.70;;
69892;SDS011;61212;42.688;22.176;2023-01-01T00:53:51;288.85;;;105.88;;
69892;SDS011;61212;42.688;22.176;2023-01-01T00:56:17;327.90;;;114.50;;
69892;SDS011;61212;42.688;22.176;2023-01-01T00:58:43;317.08;;;115.75;;
69892;SDS011;61212;42.688;22.176;2023-01-01T01:01:09;298.95;;;111.55;;
69892;SDS011;61212;42.688;22.176;2023-01-01T01:03:38;285.90;;;116.25;;
69892;SDS011;61212;42.688;22.176;2023-01-01T01:08:34;249.55;;;108.93;;
69892;SDS011;61212;42.688;22.176;2023-01-01T01:11:04;343.52;;;125.47;;
69892;SDS011;61212;42.688;22.176;2023-01-01T01:13:31;288.63;;;122.88;;
69892;SDS011;61212;42.688;22.176;2023-01-01T01:15:57;274.60;;;122.78;;
69892;SDS011;61212;42.688;22.176;2023-01-01T01:18:23;368.63;;;131.98;;
69892;SDS011;61212;42.688;22.176;2023-01-01T01:20:50;278.73;;;123.13;;
69892;SDS011;61212;42.688;22.176;2023-01-01T01:23:16;250.30;;;112.75;;
69892;SDS011;61212;42.688;22.176;2023-01-01T01:25:43;331.88;;;128.77;;
69892;SDS011;61212;42.688;22.176;2023-01-01T01:28:09;246.05;;;113.70;;
69892;SDS011;61212;42.688;22.176;2023-01-01T01:30:38;274.83;;;124.55;;
69892;SDS011;61212;42.688;22.176;2023-01-01T01:33:05;271.65;;;109.25;;
69892;SDS011;61212;42.688;22.176;2023-01-01T01:35:31;245.15;;;112.82;;
69892;SDS011;61212;42.688;22.176;2023-01-01T01:37:57;300.63;;;127.82;;
69892;SDS011;61212;42.688;22.176;2023-01-01T01:40:24;273.67;;;127.10;;
69892;SDS011;61212;42.688;22.176;2023-01-01T01:42:50;280.15;;;119.75;;
69892;SDS011;61212;42.688;22.176;2023-01-01T01:45:16;287.38;;;117.10;;
69892;SDS011;61212;42.688;22.176;2023-01-01T01:47:52;246.98;;;107.00;;
69892;SDS011;61212;42.688;22.176;2023-01-01T01:53:11;316.10;;;112.95;;
69892;SDS011;61212;42.688;22.176;2023-01-01T01:58:11;267.98;;;117.30;;
69892;SDS011;61212;42.688;22.176;2023-01-01T02:00:39;259.13;;;117.43;;
69892;SDS011;61212;42.688;22.176;2023-01-01T02:03:07;221.48;;;105.30;;
69892;SDS011;61212;42.688;22.176;2023-01-01T02:05:39;226.68;;;109.38;;
69892;SDS011;61212;42.688;22.176;2023-01-01T02:08:50;223.75;;;97.00;;
69892;SDS011;61212;42.688;22.176;2023-01-01T02:11:35;212.38;;;99.28;;
69892;SDS011;61212;42.688;22.176;2023-01-01T02:14:05;230.88;;;101.43;;
69892;SDS011;61212;42.688;22.176;2023-01-01T02:27:23;204.55;;;84.22;;
69892;SDS011;61212;42.688;22.176;2023-01-01T02:29:55;206.73;;;98.90;;
69892;SDS011;61212;42.688;22.176;2023-01-01T02:32:27;196.25;;;97.22;;
69892;SDS011;61212;42.688;22.176;2023-01-01T02:37:22;315.85;;;121.03;;
69892;SDS011;61212;42.688;22.176;2023-01-01T02:39:50;274.52;;;111.75;;
69892;SDS011;61212;42.688;22.176;2023-01-01T02:42:19;232.32;;;105.90;;
69892;SDS011;61212;42.688;22.176;2023-01-01T02:44:47;203.93;;;99.35;;
69892;SDS011;61212;42.688;22.176;2023-01-01T02:47:17;233.43;;;106.32;;
69892;SDS011;61212;42.688;22.176;2023-01-01T02:49:47;258.85;;;100.78;;
69892;SDS011;61212;42.688;22.176;2023-01-01T02:52:18;225.07;;;99.38;;
69892;SDS011;61212;42.688;22.176;2023-01-01T02:54:55;252.10;;;104.45;;
69892;SDS011;61212;42.688;22.176;2023-01-01T02:57:35;199.02;;;94.82;;
69892;SDS011;61212;42.688;22.176;2023-01-01T03:00:04;197.38;;;96.28;;
69892;SDS011;61212;42.688;22.176;2023-01-01T03:08:35;173.25;;;79.55;;
69892;SDS011;61212;42.688;22.176;2023-01-01T03:11:10;188.85;;;83.22;;
69892;SDS011;61212;42.688;22.176;2023-01-01T03:13:52;150.60;;;74.63;;
69892;SDS011;61212;42.688;22.176;2023-01-01T03:19:29;168.73;;;71.63;;
69892;SDS011;61212;42.688;22.176;2023-01-01T03:22:00;195.13;;;73.13;;
69892;SDS011;61212;42.688;22.176;2023-01-01T03:24:31;123.82;;;62.10;;
69892;SDS011;61212;42.688;22.176;2023-01-01T03:27:09;112.65;;;58.35;;
69892;SDS011;61212;42.688;22.176;2023-01-01T03:29:38;134.25;;;62.08;;
69892;SDS011;61212;42.688;22.176;2023-01-01T03:32:05;128.57;;;60.60;;
69892;SDS011;61212;42.688;22.176;2023-01-01T03:34:34;113.32;;;56.72;;
69892;SDS011;61212;42.688;22.176;2023-01-01T03:37:03;108.95;;;57.13;;
69892;SDS011;61212;42.688;22.176;2023-01-01T03:39:31;134.95;;;56.33;;
69892;SDS011;61212;42.688;22.176;2023-01-01T03:53:13;203.18;;;64.10;;
69892;SDS011;61212;42.688;22.176;2023-01-01T03:55:44;115.07;;;58.88;;
69892;SDS011;61212;42.688;22.176;2023-01-01T03:58:27;122.22;;;60.95;;
69892;SDS011;61212;42.688;22.176;2023-01-01T04:03:23;138.88;;;62.25;;
69892;SDS011;61212;42.688;22.176;2023-01-01T04:05:49;173.70;;;65.38;;
69892;SDS011;61212;42.688;22.176;2023-01-01T04:08:16;139.60;;;62.20;;
69892;SDS011;61212;42.688;22.176;2023-01-01T04:10:44;136.20;;;59.38;;
69892;SDS011;61212;42.688;22.176;2023-01-01T04:13:11;125.15;;;56.83;;
69892;SDS011;61212;42.688;22.176;2023-01-01T04:15:38;132.38;;;52.85;;
69892;SDS011;61212;42.688;22.176;2023-01-01T04:21:10;235.70;;;65.40;;
69892;SDS011;61212;42.688;22.176;2023-01-01T04:23:36;207.50;;;64.30;;
69892;SDS011;61212;42.688;22.176;2023-01-01T04:26:02;169.73;;;58.20;;
69892;SDS011;61212;42.688;22.176;2023-01-01T04:28:28;182.30;;;63.05;;
69892;SDS011;61212;42.688;22.176;2023-01-01T04:30:55;230.15;;;70.32;;
69892;SDS011;61212;42.688;22.176;2023-01-01T04:33:21;142.55;;;61.33;;
69892;SDS011;61212;42.688;22.176;2023-01-01T04:35:48;155.50;;;64.88;;
69892;SDS011;61212;42.688;22.176;2023-01-01T04:38:16;178.25;;;61.90;;
69892;SDS011;61212;42.688;22.176;2023-01-01T04:41:27;236.00;;;61.97;;
69892;SDS011;61212;42.688;22.176;2023-01-01T04:43:54;200.20;;;60.28;;
69892;SDS011;61212;42.688;22.176;2023-01-01T04:46:20;181.55;;;56.30;;
69892;SDS011;61212;42.688;22.176;2023-01-01T04:48:47;162.85;;;57.67;;
69892;SDS011;61212;42.688;22.176;2023-01-01T04:51:14;194.82;;;62.47;;
69892;SDS011;61212;42.688;22.176;2023-01-01T04:53:40;186.82;;;55.30;;
69892;SDS011;61212;42.688;22.176;2023-01-01T04:56:07;163.10;;;55.10;;
69892;SDS011;61212;42.688;22.176;2023-01-01T04:58:34;192.63;;;56.38;;
69892;SDS011;61212;42.688;22.176;2023-01-01T05:01:00;192.55;;;57.70;;
69892;SDS011;61212;42.688;22.176;2023-01-01T05:06:11;164.98;;;53.45;;
69892;SDS011;61212;42.688;22.176;2023-01-01T05:08:38;201.45;;;62.80;;
69892;SDS011;61212;42.688;22.176;2023-01-01T05:11:06;154.60;;;57.10;;
69892;SDS011;61212;42.688;22.176;2023-01-01T05:13:38;185.70;;;62.50;;
69892;SDS011;61212;42.688;22.176;2023-01-01T05:16:04;198.63;;;62.03;;
69892;SDS011;61212;42.688;22.176;2023-01-01T05:21:17;200.93;;;65.45;;
69892;SDS011;61212;42.688;22.176;2023-01-01T05:23:43;172.82;;;63.38;;
69892;SDS011;61212;42.688;22.176;2023-01-01T05:28:38;202.82;;;62.45;;
69892;SDS011;61212;42.688;22.176;2023-01-01T05:31:05;188.88;;;63.88;;
69892;SDS011;61212;42.688;22.176;2023-01-01T05:33:50;167.65;;;61.28;;
69892;SDS011;61212;42.688;22.176;2023-01-01T05:36:18;210.95;;;65.78;;
69892;SDS011;61212;42.688;22.176;2023-01-01T05:38:44;151.10;;;58.92;;
69892;SDS011;61212;42.688;22.176;2023-01-01T05:41:11;176.90;;;65.78;;
69892;SDS011;61212;42.688;22.176;2023-01-01T05:43:38;188.98;;;66.10;;
69892;SDS011;61212;42.688;22.176;2023-01-01T05:46:05;232.85;;;73.68;;
69892;SDS011;61212;42.688;22.176;2023-01-01T05:48:32;188.95;;;71.30;;
69892;SDS011;61212;42.688;22.176;2023-01-01T05:51:04;205.02;;;71.20;;
69892;SDS011;61212;42.688;22.176;2023-01-01T05:53:30;167.43;;;66.68;;
69892;SDS011;61212;42.688;22.176;2023-01-01T05:55:57;166.15;;;62.78;;
69892;SDS011;61212;42.688;22.176;2023-01-01T05:58:23;152.07;;;60.72;;
69892;SDS011;61212;42.688;22.176;2023-01-01T06:00:50;169.18;;;61.00;;
69892;SDS011;61212;42.688;22.176;2023-01-01T06:03:16;120.30;;;54.70;;
69892;SDS011;61212;42.688;22.176;2023-01-01T06:05:42;122.43;;;52.92;;
69892;SDS011;61212;42.688;22.176;2023-01-01T06:08:08;152.75;;;56.25;;
69892;SDS011;61212;42.688;22.176;2023-01-01T06:10:35;203.35;;;68.55;;
69892;SDS011;61212;42.688;22.176;2023-01-01T06:13:02;197.32;;;73.85;;
69892;SDS011;61212;42.688;22.176;2023-01-01T06:15:28;216.90;;;74.03;;
69892;SDS011;61212;42.688;22.176;2023-01-01T06:21:13;174.10;;;68.35;;
69892;SDS011;61212;42.688;22.176;2023-01-01T06:23:40;194.48;;;67.65;;
69892;SDS011;61212;42.688;22.176;2023-01-01T06:26:14;159.38;;;67.72;;
69892;SDS011;61212;42.688;22.176;2023-01-01T06:28:40;213.70;;;70.75;;
69892;SDS011;61212;42.688;22.176;2023-01-01T06:31:08;305.17;;;74.03;;
69892;SDS011;61212;42.688;22.176;2023-01-01T06:39:41;190.23;;;68.47;;
69892;SDS011;61212;42.688;22.176;2023-01-01T06:42:07;123.75;;;59.55;;
69892;SDS011;61212;42.688;22.176;2023-01-01T06:44:33;120.80;;;53.92;;
69892;SDS011;61212;42.688;22.176;2023-01-01T06:50:21;138.77;;;55.10;;
69892;SDS011;61212;42.688;22.176;2023-01-01T06:52:47;151.75;;;54.25;;
69892;SDS011;61212;42.688;22.176;2023-01-01T06:55:12;124.57;;;53.65;;
69892;SDS011;61212;42.688;22.176;2023-01-01T06:57:38;116.10;;;53.67;;
69892;SDS011;61212;42.688;22.176;2023-01-01T07:00:04;130.20;;;55.80;;
69892;SDS011;61212;42.688;22.176;2023-01-01T07:02:31;113.65;;;50.35;;
69892;SDS011;61212;42.688;22.176;2023-01-01T07:04:57;101.68;;;48.55;;
69892;SDS011;61212;42.688;22.176;2023-01-01T07:07:23;125.65;;;48.88;;
69892;SDS011;61212;42.688;22.176;2023-01-01T07:09:51;139.05;;;51.03;;
69892;SDS011;61212;42.688;22.176;2023-01-01T07:12:17;130.32;;;51.92;;
69892;SDS011;61212;42.688;22.176;2023-01-01T07:14:42;159.10;;;54.85;;
69892;SDS011;61212;42.688;22.176;2023-01-01T07:17:08;107.22;;;51.75;;
69892;SDS011;61212;42.688;22.176;2023-01-01T07:19:52;172.60;;;60.70;;
69892;SDS011;61212;42.688;22.176;2023-01-01T07:23:09;140.85;;;60.50;;
69892;SDS011;61212;42.688;22.176;2023-01-01T07:25:36;179.57;;;62.72;;
69892;SDS011;61212;42.688;22.176;2023-01-01T07:28:02;174.45;;;75.25;;
69892;SDS011;61212;42.688;22.176;2023-01-01T07:30:27;190.07;;;72.18;;
69892;SDS011;61212;42.688;22.176;2023-01-01T07:32:54;246.13;;;84.95;;
69892;SDS011;61212;42.688;22.176;2023-01-01T07:35:20;478.50;;;170.82;;
69892;SDS011;61212;42.688;22.176;2023-01-01T07:37:46;329.25;;;109.03;;
69892;SDS011;61212;42.688;22.176;2023-01-01T07:40:11;219.75;;;81.43;;
69892;SDS011;61212;42.688;22.176;2023-01-01T07:42:37;139.20;;;60.42;;
69892;SDS011;61212;42.688;22.176;2023-01-01T07:45:03;287.08;;;101.30;;
69892;SDS011;61212;42.688;22.176;2023-01-01T07:47:29;524.95;;;160.70;;
69892;SDS011;61212;42.688;22.176;2023-01-01T07:49:54;412.95;;;142.40;;
69892;SDS011;61212;42.688;22.176;2023-01-01T07:52:20;600.65;;;167.65;;
69892;SDS011;61212;42.688;22.176;2023-01-01T07:54:46;341.33;;;126.35;;
69892;SDS011;61212;42.688;22.176;2023-01-01T07:57:12;206.73;;;84.70;;
69892;SDS011;61212;42.688;22.176;2023-01-01T07:59:37;192.48;;;74.03;;
69892;SDS011;61212;42.688;22.176;2023-01-01T08:02:03;166.02;;;67.43;;
69892;SDS011;61212;42.688;22.176;2023-01-01T08:04:29;182.18;;;66.72;;
69892;SDS011;61212;42.688;22.176;2023-01-01T08:06:54;136.32;;;56.05;;
69892;SDS011;61212;42.688;22.176;2023-01-01T08:09:20;119.82;;;53.65;;
69892;SDS011;61212;42.688;22.176;2023-01-01T08:11:46;168.02;;;60.58;;
69892;SDS011;61212;42.688;22.176;2023-01-01T08:14:12;158.50;;;65.93;;
69892;SDS011;61212;42.688;22.176;2023-01-01T08:16:38;193.70;;;73.95;;
69892;SDS011;61212;42.688;22.176;2023-01-01T08:19:03;168.25;;;70.57;;
69892;SDS011;61212;42.688;22.176;2023-01-01T08:21:29;232.45;;;85.38;;
69892;SDS011;61212;42.688;22.176;2023-01-01T08:23:55;184.85;;;67.65;;
69892;SDS011;61212;42.688;22.176;2023-01-01T08:26:29;368.55;;;96.20;;
69892;SDS011;61212;42.688;22.176;2023-01-01T08:28:56;275.73;;;87.93;;
69892;SDS011;61212;42.688;22.176;2023-01-01T08:31:23;240.80;;;90.00;;
69892;SDS011;61212;42.688;22.176;2023-01-01T08:33:49;212.27;;;81.97;;
69892;SDS011;61212;42.688;22.176;2023-01-01T08:36:15;340.45;;;85.00;;
69892;SDS011;61212;42.688;22.176;2023-01-01T08:38:42;244.23;;;83.68;;
69892;SDS011;61212;42.688;22.176;2023-01-01T08:41:08;201.68;;;76.15;;
69892;SDS011;61212;42.688;22.176;2023-01-01T08:43:34;217.25;;;77.40;;
69892;SDS011;61212;42.688;22.176;2023-01-01T08:46:00;195.52;;;79.25;;
69892;SDS011;61212;42.688;22.176;2023-01-01T08:48:27;330.15;;;123.88;;
69892;SDS011;61212;42.688;22.176;2023-01-01T08:50:56;330.33;;;92.57;;
69892;SDS011;61212;42.688;22.176;2023-01-01T08:55:58;226.07;;;85.90;;
69892;SDS011;61212;42.688;22.176;2023-01-01T08:58:25;297.27;;;94.97;;
69892;SDS011;61212;42.688;22.176;2023-01-01T09:00:52;316.95;;;108.88;;
69892;SDS011;61212;42.688;22.176;2023-01-01T09:03:19;259.00;;;94.57;;
69892;SDS011;61212;42.688;22.176;2023-01-01T09:05:45;248.30;;;84.65;;
69892;SDS011;61212;42.688;22.176;2023-01-01T09:08:13;218.90;;;80.97;;
69892;SDS011;61212;42.688;22.176;2023-01-01T09:10:40;216.48;;;82.80;;
69892;SDS011;61212;42.688;22.176;2023-01-01T09:13:10;391.65;;;88.93;;
69892;SDS011;61212;42.688;22.176;2023-01-01T09:15:37;369.48;;;82.03;;
69892;SDS011;61212;42.688;22.176;2023-01-01T09:18:04;279.63;;;86.25;;
69892;SDS011;61212;42.688;22.176;2023-01-01T09:20:30;192.55;;;70.38;;
69892;SDS011;61212;42.688;22.176;2023-01-01T09:22:57;185.45;;;71.40;;
69892;SDS011;61212;42.688;22.176;2023-01-01T09:25:23;170.63;;;70.53;;
69892;SDS011;61212;42.688;22.176;2023-01-01T09:28:01;161.25;;;69.65;;
69892;SDS011;61212;42.688;22.176;2023-01-01T09:30:29;179.05;;;76.97;;
69892;SDS011;61212;42.688;22.176;2023-01-01T09:32:55;211.85;;;71.95;;
69892;SDS011;61212;42.688;22.176;2023-01-01T10:01:22;258.42;;;92.25;;
69892;SDS011;61212;42.688;22.176;2023-01-01T10:10:16;254.05;;;80.00;;
69892;SDS011;61212;42.688;22.176;2023-01-01T10:13:02;260.90;;;78.80;;
69892;SDS011;61212;42.688;22.176;2023-01-01T10:15:33;276.35;;;76.20;;
69892;SDS011;61212;42.688;22.176;2023-01-01T10:18:04;191.93;;;75.70;;
69892;SDS011;61212;42.688;22.176;2023-01-01T10:20:44;168.40;;;72.05;;
69892;SDS011;61212;42.688;22.176;2023-01-01T10:23:21;191.68;;;76.15;;
69892;SDS011;61212;42.688;22.176;2023-01-01T10:25:59;181.73;;;74.70;;
69892;SDS011;61212;42.688;22.176;2023-01-01T10:28:29;431.05;;;159.02;;
69892;SDS011;61212;42.688;22.176;2023-01-01T10:33:44;202.38;;;81.72;;
69892;SDS011;61212;42.688;22.176;2023-01-01T10:36:13;188.25;;;78.63;;
69892;SDS011;61212;42.688;22.176;2023-01-01T10:38:41;193.43;;;82.68;;
69892;SDS011;61212;42.688;22.176;2023-01-01T10:41:08;233.18;;;89.97;;
69892;SDS011;61212;42.688;22.176;2023-01-01T10:43:35;269.23;;;95.85;;
69892;SDS011;61212;42.688;22.176;2023-01-01T10:46:03;198.35;;;84.13;;
69892;SDS011;61212;42.688;22.176;2023-01-01T10:51:36;146.30;;;66.60;;
69892;SDS011;61212;42.688;22.176;2023-01-01T10:54:03;271.08;;;111.60;;
69892;SDS011;61212;42.688;22.176;2023-01-01T10:56:37;191.98;;;82.88;;
69892;SDS011;61212;42.688;22.176;2023-01-01T10:59:25;186.38;;;83.32;;
69892;SDS011;61212;42.688;22.176;2023-01-01T11:01:55;214.75;;;95.10;;
69892;SDS011;61212;42.688;22.176;2023-01-01T11:04:32;173.38;;;77.25;;
69892;SDS011;61212;42.688;22.176;2023-01-01T11:06:58;184.48;;;81.25;;
69892;SDS011;61212;42.688;22.176;2023-01-01T11:09:25;202.98;;;86.05;;
69892;SDS011;61212;42.688;22.176;2023-01-01T11:11:59;186.50;;;83.47;;
69892;SDS011;61212;42.688;22.176;2023-01-01T11:14:26;175.73;;;80.85;;
69892;SDS011;61212;42.688;22.176;2023-01-01T11:16:58;180.68;;;78.40;;
69892;SDS011;61212;42.688;22.176;2023-01-01T11:19:31;178.43;;;82.78;;
69892;SDS011;61212;42.688;22.176;2023-01-01T11:21:57;167.38;;;77.93;;
69892;SDS011;61212;42.688;22.176;2023-01-01T11:24:26;214.10;;;94.20;;
69892;SDS011;61212;42.688;22.176;2023-01-01T11:27:03;222.95;;;97.32;;
69892;SDS011;61212;42.688;22.176;2023-01-01T11:29:36;162.73;;;71.15;;
69892;SDS011;61212;42.688;22.176;2023-01-01T11:32:02;174.13;;;71.95;;
69892;SDS011;61212;42.688;22.176;2023-01-01T11:37:07;449.65;;;164.98;;
69892;SDS011;61212;42.688;22.176;2023-01-01T11:39:34;332.05;;;127.88;;
69892;SDS011;61212;42.688;22.176;2023-01-01T11:42:01;183.25;;;79.07;;
69892;SDS011;61212;42.688;22.176;2023-01-01T11:46:57;175.98;;;74.30;;
69892;SDS011;61212;42.688;22.176;2023-01-01T11:49:25;185.68;;;75.22;;
69892;SDS011;61212;42.688;22.176;2023-01-01T11:51:54;169.00;;;75.60;;
69892;SDS011;61212;42.688;22.176;2023-01-01T11:54:32;165.93;;;75.45;;
69892;SDS011;61212;42.688;22.176;2023-01-01T11:57:17;172.25;;;78.07;;
69892;SDS011;61212;42.688;22.176;2023-01-01T11:59:51;148.32;;;70.53;;
69892;SDS011;61212;42.688;22.176;2023-01-01T12:02:38;148.85;;;71.97;;
69892;SDS011;61212;42.688;22.176;2023-01-01T12:05:09;152.82;;;72.05;;
69892;SDS011;61212;42.688;22.176;2023-01-01T12:07:39;171.95;;;82.80;;
69892;SDS011;61212;42.688;22.176;2023-01-01T12:12:58;148.68;;;69.88;;
69892;SDS011;61212;42.688;22.176;2023-01-01T12:20:39;98.00;;;51.03;;
69892;SDS011;61212;42.688;22.176;2023-01-01T12:23:07;102.50;;;53.45;;
69892;SDS011;61212;42.688;22.176;2023-01-01T12:25:38;104.90;;;54.58;;
69892;SDS011;61212;42.688;22.176;2023-01-01T12:30:46;106.40;;;56.20;;
69892;SDS011;61212;42.688;22.176;2023-01-01T12:46:33;71.10;;;39.22;;
69892;SDS011;61212;42.688;22.176;2023-01-01T12:59:35;78.50;;;44.95;;
69892;SDS011;61212;42.688;22.176;2023-01-01T13:02:11;85.65;;;49.53;;
69892;SDS011;61212;42.688;22.176;2023-01-01T13:04:38;72.05;;;39.15;;
69892;SDS011;61212;42.688;22.176;2023-01-01T13:07:07;67.75;;;37.67;;
69892;SDS011;61212;42.688;22.176;2023-01-01T13:09:35;70.47;;;38.08;;
69892;SDS011;61212;42.688;22.176;2023-01-01T13:12:08;68.32;;;41.17;;
69892;SDS011;61212;42.688;22.176;2023-01-01T13:14:36;69.55;;;40.08;;
69892;SDS011;61212;42.688;22.176;2023-01-01T13:17:02;64.35;;;38.80;;
69892;SDS011;61212;42.688;22.176;2023-01-01T13:19:32;56.30;;;33.78;;
69892;SDS011;61212;42.688;22.176;2023-01-01T13:21:59;62.15;;;37.92;;
69892;SDS011;61212;42.688;22.176;2023-01-01T13:35:40;64.30;;;37.75;;
69892;SDS011;61212;42.688;22.176;2023-01-01T13:38:42;61.65;;;36.05;;
69892;SDS011;61212;42.688;22.176;2023-01-01T13:40:55;75.47;;;38.00;;
69892;SDS011;61212;42.688;22.176;2023-01-01T13:43:24;65.03;;;38.00;;
69892;SDS011;61212;42.688;22.176;2023-01-01T13:45:51;64.80;;;37.63;;
69892;SDS011;61212;42.688;22.176;2023-01-01T13:48:32;66.32;;;41.00;;
69892;SDS011;61212;42.688;22.176;2023-01-01T13:51:10;67.50;;;40.72;;
69892;SDS011;61212;42.688;22.176;2023-01-01T13:56:13;59.60;;;33.45;;
69892;SDS011;61212;42.688;22.176;2023-01-01T14:03:38;60.58;;;34.28;;
69892;SDS011;61212;42.688;22.176;2023-01-01T14:06:17;81.03;;;43.70;;
69892;SDS011;61212;42.688;22.176;2023-01-01T14:08:58;59.83;;;34.70;;
69892;SDS011;61212;42.688;22.176;2023-01-01T14:11:25;51.20;;;30.92;;
69892;SDS011;61212;42.688;22.176;2023-01-01T14:13:53;50.40;;;29.13;;
69892;SDS011;61212;42.688;22.176;2023-01-01T14:16:19;49.78;;;29.85;;
69892;SDS011;61212;42.688;22.176;2023-01-01T14:18:46;49.08;;;29.90;;
69892;SDS011;61212;42.688;22.176;2023-01-01T14:21:13;56.67;;;33.40;;
69892;SDS011;61212;42.688;22.176;2023-01-01T14:23:41;62.03;;;34.97;;
69892;SDS011;61212;42.688;22.176;2023-01-01T14:26:09;70.25;;;40.10;;
69892;SDS011;61212;42.688;22.176;2023-01-01T14:28:37;69.68;;;40.08;;
69892;SDS011;61212;42.688;22.176;2023-01-01T14:31:04;82.90;;;43.90;;
69892;SDS011;61212;42.688;22.176;2023-01-01T14:36:34;73.95;;;44.28;;
69892;SDS011;61212;42.688;22.176;2023-01-01T14:39:00;68.60;;;41.80;;
69892;SDS011;61212;42.688;22.176;2023-01-01T14:41:30;64.78;;;38.97;;
69892;SDS011;61212;42.688;22.176;2023-01-01T14:44:19;65.22;;;36.70;;
69892;SDS011;61212;42.688;22.176;2023-01-01T14:46:50;59.00;;;33.53;;
69892;SDS011;61212;42.688;22.176;2023-01-01T14:49:35;64.57;;;36.00;;
69892;SDS011;61212;42.688;22.176;2023-01-01T14:54:30;76.93;;;44.45;;
69892;SDS011;61212;42.688;22.176;2023-01-01T14:56:58;77.30;;;46.58;;
69892;SDS011;61212;42.688;22.176;2023-01-01T14:59:27;74.65;;;45.65;;
69892;SDS011;61212;42.688;22.176;2023-01-01T15:04:39;89.80;;;50.20;;
69892;SDS011;61212;42.688;22.176;2023-01-01T15:07:05;79.50;;;49.28;;
69892;SDS011;61212;42.688;22.176;2023-01-01T15:09:31;78.20;;;46.47;;
69892;SDS011;61212;42.688;22.176;2023-01-01T15:11:58;84.38;;;47.35;;
69892;SDS011;61212;42.688;22.176;2023-01-01T15:19:45;100.68;;;58.03;;
69892;SDS011;61212;42.688;22.176;2023-01-01T15:22:23;148.30;;;77.55;;
69892;SDS011;61212;42.688;22.176;2023-01-01T15:24:50;159.65;;;79.28;;
69892;SDS011;61212;42.688;22.176;2023-01-01T15:27:21;138.10;;;73.82;;
69892;SDS011;61212;42.688;22.176;2023-01-01T15:29:48;124.65;;;65.22;;
69892;SDS011;61212;42.688;22.176;2023-01-01T15:32:15;111.68;;;60.38;;
69892;SDS011;61212;42.688;22.176;2023-01-01T15:34:51;111.77;;;59.97;;
69892;SDS011;61212;42.688;22.176;2023-01-01T15:39:51;167.82;;;81.13;;
69892;SDS011;61212;42.688;22.176;2023-01-01T15:44:53;190.05;;;90.35;;
69892;SDS011;61212;42.688;22.176;2023-01-01T15:47:19;193.20;;;92.47;;
69892;SDS011;61212;42.688;22.176;2023-01-01T15:50:09;170.48;;;83.53;;
69892;SDS011;61212;42.688;22.176;2023-01-01T15:52:35;161.45;;;77.85;;
69892;SDS011;61212;42.688;22.176;2023-01-01T15:55:02;174.05;;;82.30;;
69892;SDS011;61212;42.688;22.176;2023-01-01T15:57:28;224.18;;;101.47;;
69892;SDS011;61212;42.688;22.176;2023-01-01T15:59:54;192.88;;;90.32;;
69892;SDS011;61212;42.688;22.176;2023-01-01T16:02:30;141.93;;;69.03;;
69892;SDS011;61212;42.688;22.176;2023-01-01T16:04:57;89.38;;;49.28;;
69892;SDS011;61212;42.688;22.176;2023-01-01T16:07:24;76.38;;;42.05;;
69892;SDS011;61212;42.688;22.176;2023-01-01T16:09:51;64.38;;;35.63;;
69892;SDS011;61212;42.688;22.176;2023-01-01T16:12:17;66.65;;;37.17;;
69892;SDS011;61212;42.688;22.176;2023-01-01T16:14:43;67.18;;;40.00;;
69892;SDS011;61212;42.688;22.176;2023-01-01T16:17:16;72.20;;;43.83;;
69892;SDS011;61212;42.688;22.176;2023-01-01T16:19:43;68.03;;;38.67;;
69892;SDS011;61212;42.688;22.176;2023-01-01T16:22:14;71.88;;;38.55;;
69892;SDS011;61212;42.688;22.176;2023-01-01T16:24:41;79.07;;;44.33;;
69892;SDS011;61212;42.688;22.176;2023-01-01T16:27:08;79.90;;;46.15;;
69892;SDS011;61212;42.688;22.176;2023-01-01T16:29:34;84.60;;;47.85;;
69892;SDS011;61212;42.688;22.176;2023-01-01T16:32:00;82.18;;;46.05;;
69892;SDS011;61212;42.688;22.176;2023-01-01T16:34:26;69.72;;;40.80;;
69892;SDS011;61212;42.688;22.176;2023-01-01T16:36:52;68.75;;;40.47;;
69892;SDS011;61212;42.688;22.176;2023-01-01T16:39:18;65.63;;;38.47;;
69892;SDS011;61212;42.688;22.176;2023-01-01T16:41:44;68.72;;;37.88;;
69892;SDS011;61212;42.688;22.176;2023-01-01T16:44:11;77.63;;;44.03;;
69892;SDS011;61212;42.688;22.176;2023-01-01T16:46:37;77.82;;;45.30;;
69892;SDS011;61212;42.688;22.176;2023-01-01T16:49:03;78.95;;;46.22;;
69892;SDS011;61212;42.688;22.176;2023-01-01T16:51:29;85.65;;;51.35;;
69892;SDS011;61212;42.688;22.176;2023-01-01T16:53:56;81.68;;;49.58;;
69892;SDS011;61212;42.688;22.176;2023-01-01T16:56:24;76.97;;;45.22;;
69892;SDS011;61212;42.688;22.176;2023-01-01T16:58:50;74.88;;;44.38;;
69892;SDS011;61212;42.688;22.176;2023-01-01T17:01:18;73.55;;;41.35;;
69892;SDS011;61212;42.688;22.176;2023-01-01T17:03:44;74.22;;;44.03;;
69892;SDS011;61212;42.688;22.176;2023-01-01T17:06:11;96.07;;;51.13;;
69892;SDS011;61212;42.688;22.176;2023-01-01T17:08:37;97.70;;;51.88;;
69892;SDS011;61212;42.688;22.176;2023-01-01T17:11:04;99.32;;;54.67;;
69892;SDS011;61212;42.688;22.176;2023-01-01T17:13:31;124.68;;;66.47;;